createdAt,value
2022-10-17T00:00:18.915Z,13.31
2022-10-17T00:01:18.830Z,13.32
2022-10-17T00:02:18.533Z,13.35
2022-10-17T00:03:18.642Z,13.36
2022-10-17T00:04:18.741Z,13.35
2022-10-17T00:05:18.900Z,13.31
2022-10-17T00:06:19.007Z,13.29
2022-10-17T00:07:19.106Z,13.29
2022-10-17T00:08:19.324Z,13.29
2022-10-17T00:09:19.403Z,13.27
2022-10-17T00:10:19.502Z,13.21
2022-10-17T00:11:19.636Z,13.21
2022-10-17T00:12:19.784Z,13.24
2022-10-17T00:13:19.917Z,13.27
2022-10-17T00:14:19.998Z,13.28
2022-10-17T00:15:20.175Z,13.25
2022-10-17T00:16:20.256Z,13.25
2022-10-17T00:17:20.363Z,13.22
2022-10-17T00:18:20.535Z,13.21
2022-10-17T00:19:20.624Z,13.19
2022-10-17T00:20:20.765Z,13.21
2022-10-17T00:21:20.875Z,13.19
2022-10-17T00:22:20.971Z,13.17
2022-10-17T00:23:21.137Z,13.16
2022-10-17T00:24:21.286Z,13.14
2022-10-17T00:25:21.391Z,13.13
2022-10-17T00:26:21.516Z,13.10
2022-10-17T00:27:21.627Z,13.12
2022-10-17T00:28:21.811Z,13.12
2022-10-17T00:29:21.888Z,13.10
2022-10-17T00:30:22.025Z,13.13
2022-10-17T00:31:22.197Z,13.16
2022-10-17T00:32:22.372Z,13.16
2022-10-17T00:33:22.484Z,13.10
2022-10-17T00:34:22.633Z,13.07
2022-10-17T00:35:22.734Z,13.06
2022-10-17T00:36:22.881Z,13.01
2022-10-17T00:37:22.969Z,13.09
2022-10-17T00:38:23.121Z,13.09
2022-10-17T00:39:23.256Z,13.09
2022-10-17T00:40:23.342Z,13.09
2022-10-17T00:41:23.463Z,13.13
2022-10-17T00:42:23.563Z,13.10
2022-10-17T00:43:23.655Z,13.10
2022-10-17T00:44:23.834Z,13.16
2022-10-17T00:45:23.943Z,13.14
2022-10-17T00:46:24.031Z,13.17
2022-10-17T00:47:24.126Z,13.16
2022-10-17T00:48:24.255Z,13.17
2022-10-17T00:49:24.392Z,13.14
2022-10-17T00:50:24.536Z,13.10
2022-10-17T00:51:24.682Z,13.04
2022-10-17T00:52:25.113Z,13.04
2022-10-17T00:53:24.912Z,13.06
2022-10-17T00:54:25.072Z,13.06
2022-10-17T00:55:25.174Z,13.10
2022-10-17T00:56:25.454Z,13.10
2022-10-17T00:57:25.454Z,13.12
2022-10-17T00:58:25.633Z,13.13
2022-10-17T00:59:25.755Z,13.14
2022-10-17T01:00:25.904Z,13.14
2022-10-17T01:01:26.094Z,13.16
2022-10-17T01:02:26.456Z,13.10
2022-10-17T01:03:26.421Z,13.07
2022-10-17T01:04:26.492Z,13.06
2022-10-17T01:05:26.633Z,13.03
2022-10-17T01:06:26.801Z,13.01
2022-10-17T01:07:26.872Z,12.99
2022-10-17T01:08:27.032Z,12.99
2022-10-17T01:09:27.223Z,12.94
2022-10-17T01:10:27.316Z,12.95
2022-10-17T01:11:27.408Z,12.94
2022-10-17T01:12:27.862Z,12.94
2022-10-17T01:13:27.742Z,12.94
2022-10-17T01:14:27.938Z,12.92
2022-10-17T01:15:28.024Z,12.91
2022-10-17T01:16:28.173Z,12.92
2022-10-17T01:17:28.311Z,12.95
2022-10-17T01:18:28.450Z,12.94
2022-10-17T01:19:28.625Z,12.88
2022-10-17T01:20:28.730Z,12.87
2022-10-17T01:21:28.863Z,12.87
2022-10-17T01:22:29.200Z,12.81
2022-10-17T01:23:29.143Z,12.77
2022-10-17T01:24:29.289Z,12.76
2022-10-17T01:25:29.473Z,12.71
2022-10-17T01:26:29.564Z,12.70
2022-10-17T01:27:29.659Z,12.67
2022-10-17T01:28:29.908Z,12.66
2022-10-17T01:29:29.963Z,12.66
2022-10-17T01:30:30.140Z,12.73
2022-10-17T01:31:30.306Z,12.76
2022-10-17T01:32:30.698Z,12.85
2022-10-17T01:33:30.560Z,12.91
2022-10-17T01:34:30.724Z,12.99
2022-10-17T01:35:30.820Z,13.06
2022-10-17T01:36:30.940Z,13.09
2022-10-17T01:37:31.081Z,13.17
2022-10-17T01:38:31.262Z,13.21
2022-10-17T01:39:33.390Z,13.25
2022-10-17T01:40:31.448Z,13.27
2022-10-17T01:41:31.612Z,13.28
2022-10-17T01:42:31.792Z,13.29
2022-10-17T01:43:31.853Z,13.29
2022-10-17T01:44:31.989Z,13.27
2022-10-17T01:45:32.126Z,13.27
2022-10-17T01:46:32.268Z,13.22
2022-10-17T01:47:32.370Z,13.21
2022-10-17T01:48:32.518Z,13.17
2022-10-17T01:49:32.645Z,13.14
2022-10-17T01:50:33.336Z,13.12
2022-10-17T01:51:32.942Z,13.09
2022-10-17T01:52:33.091Z,13.06
2022-10-17T01:53:33.209Z,13.06
2022-10-17T01:54:33.360Z,13.06
2022-10-17T01:55:33.565Z,13.03
2022-10-17T01:56:33.662Z,13.07
2022-10-17T01:57:33.737Z,13.10
2022-10-17T01:58:33.889Z,13.14
2022-10-17T01:59:34.018Z,13.16
2022-10-17T02:00:34.128Z,13.17
2022-10-17T02:01:34.291Z,13.17
2022-10-17T02:02:34.430Z,13.16
2022-10-17T02:03:34.572Z,13.16
2022-10-17T02:04:34.731Z,13.14
2022-10-17T02:05:34.878Z,13.13
2022-10-17T02:06:35.058Z,13.12
2022-10-17T02:07:35.171Z,13.10
2022-10-17T02:08:35.260Z,13.09
2022-10-17T02:09:35.358Z,13.06
2022-10-17T02:10:35.486Z,13.09
2022-10-17T02:11:35.631Z,13.09
2022-10-17T02:12:35.789Z,13.13
2022-10-17T02:13:35.922Z,13.14
2022-10-17T02:14:36.647Z,13.19
2022-10-17T02:15:36.243Z,13.21
2022-10-17T02:16:36.396Z,13.22
2022-10-17T02:17:36.568Z,13.22
2022-10-17T02:18:36.708Z,13.24
2022-10-17T02:19:36.779Z,13.22
2022-10-17T02:20:36.919Z,13.19
2022-10-17T02:21:37.081Z,13.14
2022-10-17T02:22:37.248Z,13.12
2022-10-17T02:23:37.371Z,13.09
2022-10-17T02:24:37.531Z,13.09
2022-10-17T02:25:37.680Z,13.09
2022-10-17T02:26:37.810Z,13.12
2022-10-17T02:27:37.967Z,13.13
2022-10-17T02:28:38.154Z,13.12
2022-10-17T02:29:38.257Z,13.10
2022-10-17T02:30:38.409Z,13.07
2022-10-17T02:31:38.496Z,13.07
2022-10-17T02:32:38.648Z,13.07
2022-10-17T02:33:38.778Z,13.09
2022-10-17T02:34:38.935Z,13.09
2022-10-17T02:35:39.016Z,13.10
2022-10-17T02:36:39.169Z,13.10
2022-10-17T02:37:39.330Z,13.10
2022-10-17T02:38:39.442Z,13.12
2022-10-17T02:39:39.556Z,13.12
2022-10-17T02:40:39.666Z,13.14
2022-10-17T02:41:39.830Z,13.10
2022-10-17T02:42:39.980Z,13.10
2022-10-17T02:43:40.085Z,13.10
2022-10-17T02:44:40.197Z,13.13
2022-10-17T02:45:40.299Z,13.13
2022-10-17T02:46:40.439Z,13.13
2022-10-17T02:47:40.598Z,13.12
2022-10-17T02:48:40.747Z,13.09
2022-10-17T02:49:40.838Z,13.07
2022-10-17T02:50:40.995Z,13.06
2022-10-17T02:51:41.127Z,13.07
2022-10-17T02:52:41.268Z,13.04
2022-10-17T02:53:41.441Z,12.98
2022-10-17T02:54:41.577Z,12.96
2022-10-17T02:55:41.688Z,12.95
2022-10-17T02:56:41.828Z,12.94
2022-10-17T02:57:41.974Z,12.94
2022-10-17T02:58:42.127Z,12.89
2022-10-17T02:59:42.225Z,12.88
2022-10-17T03:00:42.384Z,12.87
2022-10-17T03:01:42.631Z,12.88
2022-10-17T03:02:42.635Z,12.87
2022-10-17T03:03:42.769Z,12.87
2022-10-17T03:04:42.897Z,12.84
2022-10-17T03:05:43.047Z,12.84
2022-10-17T03:06:43.167Z,12.81
2022-10-17T03:07:43.317Z,12.80
2022-10-17T03:08:43.447Z,12.77
2022-10-17T03:09:43.577Z,12.73
2022-10-17T03:10:43.744Z,12.67
2022-10-17T03:11:43.833Z,12.62
2022-10-17T03:12:44.019Z,12.62
2022-10-17T03:13:44.185Z,12.59
2022-10-17T03:14:44.289Z,12.55
2022-10-17T03:15:44.498Z,12.52
2022-10-17T03:16:44.618Z,12.49
2022-10-17T03:18:47.958Z,12.55
2022-10-17T03:19:46.067Z,12.52
2022-10-17T03:20:45.196Z,12.55
2022-10-17T03:21:45.286Z,12.55
2022-10-17T03:22:46.182Z,12.55
2022-10-17T03:23:45.587Z,12.55
2022-10-17T03:24:45.705Z,12.52
2022-10-17T03:25:45.807Z,12.54
2022-10-17T03:27:46.105Z,12.55
2022-10-17T03:28:48.539Z,12.58
2022-10-17T03:29:46.415Z,12.58
2022-10-17T03:30:47.228Z,12.58
2022-10-17T03:31:47.333Z,12.61
2022-10-17T03:32:46.734Z,12.62
2022-10-17T03:33:46.912Z,12.58
2022-10-17T03:34:48.505Z,12.56
2022-10-17T03:35:47.901Z,12.56
2022-10-17T03:36:47.354Z,12.55
2022-10-17T03:37:47.516Z,12.56
2022-10-17T03:38:47.636Z,12.59
2022-10-17T03:39:47.803Z,12.58
2022-10-17T03:40:48.447Z,12.59
2022-10-17T03:41:48.024Z,12.58
2022-10-17T03:42:48.192Z,12.56
2022-10-17T03:43:48.305Z,12.58
2022-10-17T03:44:48.423Z,12.58
2022-10-17T03:45:48.617Z,12.58
2022-10-17T03:46:48.693Z,12.62
2022-10-17T03:47:48.868Z,12.62
2022-10-17T03:48:48.959Z,12.61
2022-10-17T03:49:49.097Z,12.61
2022-10-17T03:50:49.305Z,12.70
2022-10-17T03:51:49.444Z,12.71
2022-10-17T03:52:49.551Z,12.74
2022-10-17T03:53:49.704Z,12.71
2022-10-17T03:54:49.772Z,12.73
2022-10-17T03:55:49.946Z,12.74
2022-10-17T03:56:50.085Z,12.69
2022-10-17T03:57:50.161Z,12.69
2022-10-17T03:58:50.245Z,12.70
2022-10-17T03:59:50.408Z,12.67
2022-10-17T04:00:50.636Z,12.67
2022-10-17T04:01:50.694Z,12.62
2022-10-17T04:02:50.842Z,12.59
2022-10-17T04:03:51.018Z,12.56
2022-10-17T04:04:51.095Z,12.59
2022-10-17T04:05:51.221Z,12.58
2022-10-17T04:06:51.370Z,12.58
2022-10-17T04:07:51.544Z,12.58
2022-10-17T04:08:51.675Z,12.56
2022-10-17T04:09:51.845Z,12.59
2022-10-17T04:10:51.958Z,12.59
2022-10-17T04:11:52.107Z,12.58
2022-10-17T04:12:52.223Z,12.59
2022-10-17T04:13:52.381Z,12.61
2022-10-17T04:14:52.502Z,12.63
2022-10-17T04:15:52.671Z,12.67
2022-10-17T04:16:52.836Z,12.69
2022-10-17T04:17:53.096Z,12.73
2022-10-17T04:18:53.143Z,12.76
2022-10-17T04:19:53.303Z,12.76
2022-10-17T04:20:53.552Z,12.74
2022-10-17T04:21:53.634Z,12.77
2022-10-17T04:22:53.799Z,12.80
2022-10-17T04:23:53.964Z,12.85
2022-10-17T04:24:54.132Z,12.87
2022-10-17T04:25:54.326Z,12.89
2022-10-17T04:26:54.406Z,12.91
2022-10-17T04:27:54.511Z,12.98
2022-10-17T04:28:54.639Z,12.96
2022-10-17T04:29:54.794Z,12.95
2022-10-17T04:30:54.944Z,12.91
2022-10-17T04:31:55.083Z,12.92
2022-10-17T04:32:55.221Z,12.91
2022-10-17T04:33:55.435Z,12.95
2022-10-17T04:34:55.542Z,12.95
2022-10-17T04:35:55.622Z,12.95
2022-10-17T04:36:55.760Z,12.95
2022-10-17T04:37:55.902Z,12.98
2022-10-17T04:38:56.098Z,12.95
2022-10-17T04:39:56.285Z,12.98
2022-10-17T04:40:56.353Z,12.98
2022-10-17T04:41:56.502Z,12.99
2022-10-17T04:42:56.614Z,13.01
2022-10-17T04:43:56.791Z,13.01
2022-10-17T04:44:56.921Z,13.07
2022-10-17T04:45:57.023Z,13.12
2022-10-17T04:46:57.175Z,13.16
2022-10-17T04:47:57.322Z,13.16
2022-10-17T04:48:57.490Z,13.29
2022-10-17T04:49:57.678Z,13.39
2022-10-17T04:50:57.756Z,13.44
2022-10-17T04:51:57.891Z,13.47
2022-10-17T04:52:58.030Z,13.48
2022-10-17T04:53:58.185Z,13.44
2022-10-17T04:54:58.271Z,13.44
2022-10-17T04:55:58.369Z,13.53
2022-10-17T04:56:58.534Z,13.61
2022-10-17T04:57:58.683Z,13.59
2022-10-17T04:58:58.802Z,13.59
2022-10-17T04:59:59.064Z,13.59
2022-10-17T05:00:59.140Z,13.59
2022-10-17T05:01:59.232Z,13.61
2022-10-17T05:02:59.351Z,13.59
2022-10-17T05:03:59.513Z,13.65
2022-10-17T05:04:59.660Z,13.68
2022-10-17T05:05:59.799Z,13.65
2022-10-17T05:06:59.979Z,13.69
2022-10-17T05:08:00.142Z,13.72
2022-10-17T05:09:00.249Z,13.69
2022-10-17T05:10:00.399Z,13.72
2022-10-17T05:11:00.591Z,13.68
2022-10-17T05:12:00.701Z,13.66
2022-10-17T05:13:00.781Z,13.66
2022-10-17T05:14:00.925Z,13.66
2022-10-17T05:15:01.059Z,13.66
2022-10-17T05:16:01.209Z,13.62
2022-10-17T05:17:01.409Z,13.65
2022-10-17T05:18:01.509Z,13.71
2022-10-17T05:19:01.648Z,13.71
2022-10-17T05:20:01.801Z,13.68
2022-10-17T05:21:01.969Z,13.63
2022-10-17T05:22:02.149Z,13.65
2022-10-17T05:23:02.295Z,13.63
2022-10-17T05:24:02.411Z,13.63
2022-10-17T05:25:02.569Z,13.62
2022-10-17T05:26:02.755Z,13.65
2022-10-17T05:27:02.915Z,13.72
2022-10-17T05:28:03.050Z,13.73
2022-10-17T05:29:03.185Z,13.79
2022-10-17T05:30:03.229Z,13.81
2022-10-17T05:31:03.358Z,13.80
2022-10-17T05:32:03.522Z,13.79
2022-10-17T05:33:03.805Z,13.81
2022-10-17T05:34:03.777Z,13.83
2022-10-17T05:35:03.918Z,13.76
2022-10-17T05:36:04.049Z,13.76
2022-10-17T05:37:04.171Z,13.79
2022-10-17T05:38:04.308Z,13.87
2022-10-17T05:39:04.482Z,14.01
2022-10-17T05:40:04.641Z,14.05
2022-10-17T05:41:04.769Z,14.12
2022-10-17T05:42:04.911Z,14.09
2022-10-17T05:43:05.062Z,14.13
2022-10-17T05:44:05.758Z,14.13
2022-10-17T05:45:05.276Z,14.13
2022-10-17T05:46:05.419Z,14.12
2022-10-17T05:47:05.544Z,14.13
2022-10-17T05:48:06.082Z,14.20
2022-10-17T05:49:14.928Z,14.21
2022-10-17T05:50:06.908Z,14.20
2022-10-17T05:51:06.030Z,14.16
2022-10-17T05:52:06.166Z,14.17
2022-10-17T05:53:06.319Z,14.11
2022-10-17T05:54:06.417Z,14.06
2022-10-17T05:55:06.571Z,14.04
2022-10-17T05:56:06.679Z,13.99
2022-10-17T05:57:06.792Z,13.94
2022-10-17T05:58:06.887Z,13.93
2022-10-17T05:59:07.038Z,13.99
2022-10-17T06:00:07.206Z,14.01
2022-10-17T06:01:10.625Z,14.01
2022-10-17T06:02:08.426Z,13.96
2022-10-17T06:03:07.498Z,13.96
2022-10-17T06:04:07.645Z,14.02
2022-10-17T06:05:07.770Z,14.04
2022-10-17T06:06:07.918Z,14.04
2022-10-17T06:07:08.038Z,14.01
2022-10-17T06:08:08.137Z,14.04
2022-10-17T06:09:08.276Z,14.05
2022-10-17T06:10:08.470Z,14.08
2022-10-17T06:11:10.207Z,14.05
2022-10-17T06:12:08.657Z,13.96
2022-10-17T06:13:08.794Z,13.99
2022-10-17T06:14:08.946Z,14.04
2022-10-17T06:15:09.118Z,14.01
2022-10-17T06:16:09.226Z,14.06
2022-10-17T06:17:13.510Z,14.16
2022-10-17T06:18:10.500Z,14.19
2022-10-17T06:19:09.601Z,14.19
2022-10-17T06:20:09.738Z,14.27
2022-10-17T06:21:09.898Z,14.38
2022-10-17T06:22:10.043Z,14.35
2022-10-17T06:23:10.189Z,14.35
2022-10-17T06:24:10.300Z,14.44
2022-10-17T06:25:10.398Z,14.48
2022-10-17T06:26:10.548Z,14.46
2022-10-17T06:27:11.974Z,14.46
2022-10-17T06:28:11.007Z,14.44
2022-10-17T06:29:11.037Z,14.45
2022-10-17T06:30:11.837Z,14.45
2022-10-17T06:31:11.209Z,14.42
2022-10-17T06:32:14.258Z,14.41
2022-10-17T06:33:11.443Z,14.48
2022-10-17T06:34:11.549Z,14.52
2022-10-17T06:35:11.677Z,14.53
2022-10-17T06:36:11.871Z,14.53
2022-10-17T06:37:11.939Z,14.59
2022-10-17T06:38:12.081Z,14.64
2022-10-17T06:39:12.308Z,14.64
2022-10-17T06:40:12.370Z,14.67
2022-10-17T06:41:12.467Z,14.74
2022-10-17T06:42:12.606Z,14.79
2022-10-17T06:43:12.748Z,14.85
2022-10-17T06:44:12.907Z,14.85
2022-10-17T06:45:12.987Z,14.83
2022-10-17T06:46:13.131Z,14.86
2022-10-17T06:47:14.340Z,14.94
2022-10-17T06:48:13.416Z,14.97
2022-10-17T06:49:13.560Z,14.97
2022-10-17T06:50:13.712Z,15.00
2022-10-17T06:51:13.806Z,14.98
2022-10-17T06:52:13.950Z,15.00
2022-10-17T06:53:14.097Z,15.01
2022-10-17T06:54:14.214Z,15.00
2022-10-17T06:55:16.837Z,15.03
2022-10-17T06:56:15.437Z,15.00
2022-10-17T06:57:14.569Z,15.03
2022-10-17T06:58:14.707Z,15.07
2022-10-17T06:59:14.846Z,15.11
2022-10-17T07:00:15.017Z,15.19
2022-10-17T07:01:15.157Z,15.20
2022-10-17T07:02:15.299Z,15.22
2022-10-17T07:03:15.415Z,15.20
2022-10-17T07:04:15.557Z,15.23
2022-10-17T07:05:15.671Z,15.30
2022-10-17T07:06:15.798Z,15.37
2022-10-17T07:07:15.890Z,15.40
2022-10-17T07:08:16.037Z,15.44
2022-10-17T07:09:16.157Z,15.49
2022-10-17T07:10:16.325Z,15.51
2022-10-17T07:11:16.450Z,15.53
2022-10-17T07:12:16.538Z,15.62
2022-10-17T07:13:16.668Z,15.62
2022-10-17T07:14:16.817Z,15.64
2022-10-17T07:15:16.926Z,15.68
2022-10-17T07:16:17.033Z,15.73
2022-10-17T07:17:17.177Z,15.78
2022-10-17T07:18:17.326Z,15.81
2022-10-17T07:19:17.435Z,15.86
2022-10-17T07:20:17.573Z,15.86
2022-10-17T07:21:17.702Z,15.89
2022-10-17T07:22:17.879Z,15.92
2022-10-17T07:23:18.695Z,15.96
2022-10-17T07:24:18.078Z,15.99
2022-10-17T07:25:18.175Z,15.98
2022-10-17T07:26:18.327Z,16.03
2022-10-17T07:27:19.157Z,16.06
2022-10-17T07:28:18.578Z,16.08
2022-10-17T07:29:18.654Z,16.08
2022-10-17T07:30:18.816Z,16.08
2022-10-17T07:31:18.916Z,16.17
2022-10-17T07:32:19.075Z,16.23
2022-10-17T07:33:19.175Z,16.29
2022-10-17T07:34:19.321Z,16.33
2022-10-17T07:35:19.395Z,16.36
2022-10-17T07:36:19.547Z,16.42
2022-10-17T07:37:19.716Z,16.48
2022-10-17T07:38:19.777Z,16.54
2022-10-17T07:39:19.878Z,16.57
2022-10-17T07:40:20.743Z,16.62
2022-10-17T07:41:21.796Z,16.65
2022-10-17T07:42:20.277Z,16.70
2022-10-17T07:43:21.097Z,16.75
2022-10-17T07:44:20.907Z,16.80
2022-10-17T07:45:22.068Z,16.78
2022-10-17T07:46:20.736Z,16.82
2022-10-17T07:47:20.877Z,16.84
2022-10-17T07:48:20.984Z,16.84
2022-10-17T07:49:21.558Z,16.88
2022-10-17T07:50:21.217Z,16.92
2022-10-17T07:51:21.337Z,16.92
2022-10-17T07:52:21.440Z,16.95
2022-10-17T07:53:21.585Z,16.99
2022-10-17T07:54:21.759Z,17.05
2022-10-17T07:55:21.851Z,17.06
2022-10-17T07:56:21.968Z,17.10
2022-10-17T07:57:22.809Z,17.18
2022-10-17T07:58:22.206Z,17.22
2022-10-17T07:59:22.867Z,17.35
2022-10-17T08:00:22.927Z,17.42
2022-10-17T08:01:23.293Z,17.49
2022-10-17T08:02:23.416Z,17.60
2022-10-17T08:03:23.535Z,17.65
2022-10-17T08:04:22.954Z,17.73
2022-10-17T08:05:23.775Z,17.77
2022-10-17T08:06:23.454Z,17.80
2022-10-17T08:07:28.351Z,17.80
2022-10-17T08:08:24.919Z,17.80
2022-10-17T08:09:23.526Z,17.83
2022-10-17T08:10:23.637Z,17.83
2022-10-17T08:11:23.717Z,17.84
2022-10-17T08:12:23.859Z,17.89
2022-10-17T08:13:24.010Z,17.84
2022-10-17T08:14:24.116Z,17.91
2022-10-17T08:15:27.937Z,17.95
2022-10-17T08:16:25.398Z,17.95
2022-10-17T08:17:24.538Z,17.98
2022-10-17T08:18:24.633Z,17.96
2022-10-17T08:19:24.776Z,18.04
2022-10-17T08:20:24.968Z,18.14
2022-10-17T08:21:25.027Z,18.13
2022-10-17T08:22:25.166Z,18.23
2022-10-17T08:23:25.306Z,18.31
2022-10-17T08:24:25.447Z,18.39
2022-10-17T08:25:25.613Z,18.49
2022-10-17T08:26:25.885Z,18.65
2022-10-17T08:27:25.810Z,18.76
2022-10-17T08:28:25.967Z,18.79
2022-10-17T08:29:26.079Z,18.90
2022-10-17T08:30:26.184Z,19.05
2022-10-17T08:31:26.353Z,19.05
2022-10-17T08:32:26.650Z,19.13
2022-10-17T08:33:26.555Z,19.17
2022-10-17T08:34:26.646Z,19.16
2022-10-17T08:35:26.826Z,19.23
2022-10-17T08:36:27.479Z,19.28
2022-10-17T08:37:27.324Z,19.32
2022-10-17T08:38:27.952Z,19.31
2022-10-17T08:39:27.307Z,19.27
2022-10-17T08:40:27.458Z,19.32
2022-10-17T08:41:27.589Z,19.40
2022-10-17T08:42:27.670Z,19.50
2022-10-17T08:43:28.445Z,19.55
2022-10-17T08:44:27.915Z,19.61
2022-10-17T08:45:28.068Z,19.76
2022-10-17T08:46:28.209Z,19.86
2022-10-17T08:47:28.746Z,19.95
2022-10-17T08:48:28.456Z,20.02
2022-10-17T08:49:28.608Z,20.07
2022-10-17T08:50:28.705Z,20.15
2022-10-17T08:51:28.879Z,20.20
2022-10-17T08:52:28.961Z,20.25
2022-10-17T08:53:29.108Z,20.20
2022-10-17T08:54:29.227Z,20.31
2022-10-17T08:55:29.336Z,20.31
2022-10-17T08:56:47.597Z,20.46
2022-10-17T08:57:31.045Z,20.54
2022-10-17T08:58:29.750Z,20.56
2022-10-17T08:59:29.885Z,20.54
2022-10-17T09:00:29.948Z,20.64
2022-10-17T09:01:30.107Z,20.76
2022-10-17T09:02:30.349Z,20.90
2022-10-17T09:03:30.434Z,20.88
2022-10-17T09:05:30.540Z,20.97
2022-10-17T09:06:30.677Z,20.98
2022-10-17T09:07:31.049Z,20.76
2022-10-17T09:08:30.942Z,20.82
2022-10-17T09:09:31.064Z,20.91
2022-10-17T09:10:31.171Z,20.94
2022-10-17T09:11:31.315Z,20.96
2022-10-17T09:12:31.839Z,21.00
2022-10-17T09:13:31.614Z,21.01
2022-10-17T09:14:31.703Z,21.15
2022-10-17T09:15:31.806Z,21.03
2022-10-17T09:16:31.908Z,20.98
2022-10-17T09:17:32.496Z,21.05
2022-10-17T09:18:32.178Z,21.03
2022-10-17T09:19:32.340Z,21.09
2022-10-17T09:20:32.460Z,21.08
2022-10-17T09:21:32.561Z,21.18
2022-10-17T09:22:32.659Z,21.05
2022-10-17T09:23:32.800Z,21.19
2022-10-17T09:24:32.960Z,21.64
2022-10-17T09:25:33.081Z,22.09
2022-10-17T09:26:33.220Z,22.23
2022-10-17T09:27:33.365Z,22.11
2022-10-17T09:28:33.494Z,22.01
2022-10-17T09:29:37.927Z,21.94
2022-10-17T09:30:47.499Z,21.99
2022-10-17T09:31:34.810Z,22.17
2022-10-17T09:32:33.943Z,22.24
2022-10-17T09:33:35.429Z,22.54
2022-10-17T09:34:35.212Z,22.54
2022-10-17T09:35:34.366Z,22.63
2022-10-17T09:36:34.484Z,22.33
2022-10-17T09:37:34.633Z,22.24
2022-10-17T09:38:34.750Z,22.24
2022-10-17T09:39:34.887Z,22.35
2022-10-17T09:40:34.990Z,22.26
2022-10-17T09:41:50.506Z,22.20
2022-10-17T09:42:36.204Z,22.20
2022-10-17T09:43:35.342Z,22.01
2022-10-17T09:44:35.491Z,22.09
2022-10-17T09:45:35.583Z,21.96
2022-10-17T09:46:35.688Z,22.02
2022-10-17T09:47:35.840Z,22.09
2022-10-17T09:48:35.947Z,22.08
2022-10-17T09:49:36.103Z,22.11
2022-10-17T09:50:36.248Z,22.15
2022-10-17T09:51:36.348Z,22.04
2022-10-17T09:52:36.456Z,21.93
2022-10-17T09:53:36.602Z,21.79
2022-10-17T09:54:36.710Z,21.77
2022-10-17T09:55:36.901Z,21.71
2022-10-17T09:56:37.001Z,21.73
2022-10-17T09:57:37.112Z,21.55
2022-10-17T09:58:37.223Z,21.42
2022-10-17T09:59:37.376Z,21.40
2022-10-17T10:00:37.514Z,21.43
2022-10-17T10:01:37.593Z,21.51
2022-10-17T10:02:37.710Z,21.49
2022-10-17T10:03:37.825Z,21.48
2022-10-17T10:04:59.669Z,21.45
2022-10-17T10:05:39.129Z,21.48
2022-10-17T10:06:38.191Z,21.48
2022-10-17T10:07:38.328Z,21.36
2022-10-17T10:08:38.442Z,21.30
2022-10-17T10:09:39.629Z,21.18
2022-10-17T10:10:38.673Z,21.16
2022-10-17T10:11:38.838Z,21.13
2022-10-17T10:12:38.985Z,21.09
2022-10-17T10:13:39.065Z,21.13
2022-10-17T10:14:39.174Z,21.09
2022-10-17T10:15:39.321Z,21.11
2022-10-17T10:16:39.464Z,21.11
2022-10-17T10:17:39.584Z,21.01
2022-10-17T10:18:39.717Z,20.98
2022-10-17T10:19:39.811Z,20.97
2022-10-17T10:20:39.893Z,20.91
2022-10-17T10:21:41.413Z,20.88
2022-10-17T10:22:40.163Z,20.90
2022-10-17T10:23:40.422Z,20.87
2022-10-17T10:24:40.412Z,20.83
2022-10-17T10:25:40.514Z,20.81
2022-10-17T10:26:40.652Z,20.75
2022-10-17T10:27:40.805Z,20.69
2022-10-17T10:28:40.978Z,20.66
2022-10-17T10:29:41.057Z,20.66
2022-10-17T10:30:41.166Z,20.64
2022-10-17T10:31:41.330Z,20.60
2022-10-17T10:32:41.421Z,20.61
2022-10-17T10:33:41.887Z,20.58
2022-10-17T10:34:41.674Z,20.57
2022-10-17T10:35:41.842Z,20.54
2022-10-17T10:36:41.923Z,20.56
2022-10-17T10:37:42.070Z,20.48
2022-10-17T10:38:42.205Z,20.44
2022-10-17T10:39:42.363Z,20.48
2022-10-17T10:40:42.463Z,20.50
2022-10-17T10:41:42.603Z,20.50
2022-10-17T10:42:42.765Z,20.48
2022-10-17T10:43:42.916Z,20.46
2022-10-17T10:44:43.074Z,20.46
2022-10-17T10:45:48.130Z,20.50
2022-10-17T10:46:44.285Z,20.50
2022-10-17T10:47:43.477Z,20.46
2022-10-17T10:48:43.694Z,20.46
2022-10-17T10:49:43.736Z,20.46
2022-10-17T10:50:45.433Z,20.41
2022-10-17T10:51:43.932Z,20.41
2022-10-17T10:52:44.076Z,20.41
2022-10-17T10:53:44.185Z,20.38
2022-10-17T10:54:44.374Z,20.37
2022-10-17T10:55:44.493Z,20.37
2022-10-17T10:56:44.573Z,20.35
2022-10-17T10:57:44.749Z,20.33
2022-10-17T10:58:44.828Z,20.30
2022-10-17T10:59:44.986Z,20.27
2022-10-17T11:00:45.124Z,20.34
2022-10-17T11:01:45.237Z,20.38
2022-10-17T11:02:45.344Z,20.38
2022-10-17T11:03:45.512Z,20.38
2022-10-17T11:04:45.584Z,20.41
2022-10-17T11:05:45.735Z,20.42
2022-10-17T11:06:45.833Z,20.42
2022-10-17T11:07:45.987Z,20.50
2022-10-17T11:08:46.117Z,20.56
2022-10-17T11:09:46.205Z,20.58
2022-10-17T11:10:46.295Z,20.63
2022-10-17T11:11:46.443Z,20.71
2022-10-17T11:12:46.566Z,20.78
2022-10-17T11:13:49.549Z,20.85
2022-10-17T11:14:47.803Z,20.87
2022-10-17T11:15:46.956Z,20.82
2022-10-17T11:16:47.139Z,20.75
2022-10-17T11:17:47.197Z,20.71
2022-10-17T11:18:47.318Z,20.64
2022-10-17T11:19:47.427Z,20.66
2022-10-17T11:20:47.565Z,20.57
2022-10-17T11:21:47.719Z,20.54
2022-10-17T11:22:47.818Z,20.48
2022-10-17T11:23:47.989Z,20.41
2022-10-17T11:24:48.069Z,20.37
2022-10-17T11:26:52.048Z,20.48
2022-10-17T11:27:52.023Z,20.37
2022-10-17T11:28:52.233Z,20.22
2022-10-17T11:29:52.372Z,20.38
2022-10-17T11:30:52.412Z,20.38
2022-10-17T11:31:52.509Z,20.34
2022-10-17T11:32:53.376Z,20.22
2022-10-17T11:33:52.807Z,20.33
2022-10-17T11:34:52.911Z,20.35
2022-10-17T11:35:53.726Z,20.33
2022-10-17T11:36:53.159Z,20.26
2022-10-17T11:37:53.961Z,20.20
2022-10-17T11:38:53.420Z,20.19
2022-10-17T11:39:53.504Z,20.07
2022-10-17T11:40:53.578Z,20.08
2022-10-17T11:41:55.413Z,20.07
2022-10-17T11:42:53.884Z,19.98
2022-10-17T11:43:53.977Z,19.80
2022-10-17T11:44:54.245Z,19.83
2022-10-17T11:45:54.309Z,19.80
2022-10-17T11:46:54.795Z,19.76
2022-10-17T11:47:54.519Z,19.75
2022-10-17T11:48:54.658Z,19.76
2022-10-17T11:49:55.069Z,19.80
2022-10-17T11:52:00.738Z,19.78
2022-10-17T11:52:57.125Z,19.62
2022-10-17T11:53:55.311Z,19.47
2022-10-17T11:54:55.417Z,19.46
2022-10-17T11:55:55.500Z,19.43
2022-10-17T11:56:55.659Z,19.40
2022-10-17T11:57:55.746Z,19.28
2022-10-17T11:58:55.919Z,19.24
2022-10-17T11:59:55.996Z,19.24
2022-10-17T12:00:56.167Z,19.27
2022-10-17T12:01:56.246Z,19.31
2022-10-17T12:02:56.391Z,19.32
2022-10-17T12:03:56.533Z,19.32
2022-10-17T12:04:56.659Z,19.32
2022-10-17T12:05:56.763Z,19.32
2022-10-17T12:06:56.866Z,19.27
2022-10-17T12:07:57.097Z,19.21
2022-10-17T12:08:57.099Z,19.27
2022-10-17T12:09:57.219Z,19.30
2022-10-17T12:10:57.314Z,19.30
2022-10-17T12:11:57.423Z,19.35
2022-10-17T12:12:57.601Z,19.34
2022-10-17T12:13:57.683Z,19.47
2022-10-17T12:14:57.818Z,19.55
2022-10-17T12:15:57.967Z,19.53
2022-10-17T12:16:58.091Z,19.68
2022-10-17T12:17:58.222Z,19.70
2022-10-17T12:18:58.316Z,19.64
2022-10-17T12:19:58.417Z,19.75
2022-10-17T12:20:58.559Z,19.68
2022-10-17T12:21:58.698Z,19.72
2022-10-17T12:22:58.831Z,19.64
2022-10-17T12:23:58.930Z,19.68
2022-10-17T12:24:59.145Z,19.72
2022-10-17T12:26:01.586Z,19.75
2022-10-17T12:27:00.277Z,19.79
2022-10-17T12:27:59.408Z,19.78
2022-10-17T12:28:59.617Z,19.76
2022-10-17T12:29:59.742Z,19.70
2022-10-17T12:31:00.556Z,19.60
2022-10-17T12:31:59.928Z,19.55
2022-10-17T12:33:06.180Z,19.53
2022-10-17T12:34:01.200Z,19.47
2022-10-17T12:35:01.433Z,19.39
2022-10-17T12:36:00.778Z,19.27
2022-10-17T12:37:00.614Z,19.30
2022-10-17T12:38:00.681Z,19.24
2022-10-17T12:39:00.890Z,19.21
2022-10-17T12:40:00.987Z,19.15
2022-10-17T12:41:01.040Z,19.12
2022-10-17T12:42:01.141Z,19.15
2022-10-17T12:43:01.279Z,19.10
2022-10-17T12:44:01.443Z,19.16
2022-10-17T12:45:01.558Z,19.20
2022-10-17T12:46:01.642Z,19.17
2022-10-17T12:47:01.809Z,19.16
2022-10-17T12:48:01.996Z,19.16
2022-10-17T12:49:01.996Z,19.13
2022-10-17T12:50:02.284Z,19.16
2022-10-17T12:51:34.890Z,19.17
2022-10-17T12:52:03.357Z,19.16
2022-10-17T12:53:02.491Z,19.10
2022-10-17T12:54:02.639Z,19.16
2022-10-17T12:55:18.081Z,19.13
2022-10-17T12:56:03.993Z,19.15
2022-10-17T12:57:03.003Z,19.15
2022-10-17T12:58:03.101Z,19.17
2022-10-17T12:59:03.249Z,19.24